createdAt,value
2022-07-30T00:02:18.952Z,3.40
2022-07-30T00:04:47.074Z,3.13
2022-07-30T00:07:15.354Z,3.20
2022-07-30T00:09:44.578Z,2.87
2022-07-30T00:12:12.439Z,3.43
2022-07-30T00:14:40.258Z,3.10
2022-07-30T00:17:08.199Z,3.30
2022-07-30T00:19:36.875Z,3.63
2022-07-30T00:22:04.703Z,3.30
2022-07-30T00:24:32.593Z,3.07
2022-07-30T00:27:02.141Z,3.30
2022-07-30T00:29:30.772Z,3.47
2022-07-30T00:31:58.591Z,3.17
2022-07-30T00:34:26.416Z,3.10
2022-07-30T00:36:54.229Z,2.80
2022-07-30T00:39:22.062Z,3.20
2022-07-30T00:41:57.879Z,3.30
2022-07-30T00:44:27.392Z,3.03
2022-07-30T00:46:56.058Z,3.17
2022-07-30T00:49:24.536Z,3.20
2022-07-30T00:51:52.899Z,3.10
2022-07-30T00:54:21.154Z,3.00
2022-07-30T00:56:49.390Z,3.03
2022-07-30T00:59:17.445Z,3.03
2022-07-30T01:01:46.662Z,3.37
2022-07-30T01:04:14.558Z,3.50
2022-07-30T01:06:42.383Z,3.57
2022-07-30T01:09:10.175Z,3.33
2022-07-30T01:11:39.423Z,4.30
2022-07-30T01:14:08.388Z,3.63
2022-07-30T01:16:37.997Z,4.47
2022-07-30T01:19:28.410Z,4.20
2022-07-30T01:22:10.460Z,3.57
2022-07-30T01:24:43.770Z,3.63
2022-07-30T01:27:19.497Z,3.87
2022-07-30T01:29:49.054Z,3.70
2022-07-30T01:32:18.696Z,3.83
2022-07-30T01:34:47.811Z,3.40
2022-07-30T01:37:17.878Z,3.50
2022-07-30T01:39:49.444Z,3.60
2022-07-30T01:42:20.350Z,4.60
2022-07-30T01:44:50.334Z,4.00
2022-07-30T01:47:19.358Z,3.73
2022-07-30T01:49:49.389Z,3.60
2022-07-30T01:52:18.838Z,3.57
2022-07-30T01:54:49.471Z,3.60
2022-07-30T01:57:21.465Z,3.17
2022-07-30T01:59:52.975Z,3.60
2022-07-30T02:02:20.967Z,3.83
2022-07-30T02:04:49.175Z,4.00
2022-07-30T02:07:20.628Z,3.90
2022-07-30T02:09:54.654Z,3.73
2022-07-30T02:12:29.119Z,3.67
2022-07-30T02:15:08.029Z,3.60
2022-07-30T02:17:42.996Z,4.10
2022-07-30T02:20:15.401Z,3.60
2022-07-30T02:22:48.029Z,3.80
2022-07-30T02:25:21.271Z,3.83
2022-07-30T02:27:55.581Z,4.07
2022-07-30T02:30:26.844Z,4.37
2022-07-30T02:33:00.943Z,4.63
2022-07-30T02:35:31.485Z,3.90
2022-07-30T02:38:01.223Z,3.73
2022-07-30T02:40:29.550Z,3.67
2022-07-30T02:42:59.728Z,3.47
2022-07-30T02:45:28.835Z,3.20
2022-07-30T02:48:01.032Z,3.37
2022-07-30T02:50:29.594Z,3.20
2022-07-30T02:53:00.391Z,3.30
2022-07-30T02:55:31.054Z,3.23
2022-07-30T02:58:01.961Z,3.10
2022-07-30T03:00:31.813Z,3.20
2022-07-30T03:03:00.310Z,3.80
2022-07-30T03:05:30.099Z,3.67
2022-07-30T03:08:02.572Z,3.70
2022-07-30T03:10:31.827Z,3.43
2022-07-30T03:13:05.261Z,3.83
2022-07-30T03:15:39.421Z,3.90
2022-07-30T03:18:12.985Z,3.20
2022-07-30T03:20:41.809Z,3.20
2022-07-30T03:23:12.438Z,3.30
2022-07-30T03:25:42.227Z,3.67
2022-07-30T03:28:12.856Z,3.50
2022-07-30T03:30:40.811Z,3.20
2022-07-30T03:33:09.043Z,3.87
2022-07-30T03:35:37.104Z,3.60
2022-07-30T03:38:07.480Z,3.30
2022-07-30T03:40:35.713Z,3.60
2022-07-30T03:43:03.688Z,4.20
2022-07-30T03:45:33.780Z,4.37
2022-07-30T03:48:02.355Z,3.83
2022-07-30T03:50:31.301Z,3.40
2022-07-30T03:52:59.347Z,3.10
2022-07-30T03:55:27.491Z,3.47
2022-07-30T03:57:55.420Z,3.67
2022-07-30T04:00:23.598Z,3.17
2022-07-30T04:02:52.758Z,4.17
2022-07-30T04:05:20.638Z,4.13
2022-07-30T04:07:48.610Z,3.53
2022-07-30T04:10:17.102Z,3.37
2022-07-30T04:12:44.945Z,4.27
2022-07-30T04:16:05.442Z,3.43
2022-07-30T04:18:05.392Z,3.90
2022-07-30T04:20:39.791Z,3.90
2022-07-30T04:23:08.755Z,3.90
2022-07-30T04:25:36.666Z,4.00
2022-07-30T04:28:05.579Z,4.30
2022-07-30T04:30:34.760Z,4.00
2022-07-30T04:33:04.327Z,4.20
2022-07-30T04:35:49.862Z,4.23
2022-07-30T04:38:20.657Z,4.47
2022-07-30T04:40:48.999Z,4.00
2022-07-30T04:43:18.403Z,4.97
2022-07-30T04:45:46.257Z,5.60
2022-07-30T04:48:15.498Z,5.27
2022-07-30T04:50:46.844Z,5.07
2022-07-30T04:53:15.453Z,5.60
2022-07-30T04:55:45.823Z,6.03
2022-07-30T04:58:16.205Z,5.83
2022-07-30T05:00:44.960Z,5.63
2022-07-30T05:03:15.455Z,6.00
2022-07-30T05:05:43.907Z,5.50
2022-07-30T05:08:14.212Z,6.13
2022-07-30T05:10:42.459Z,5.23
2022-07-30T05:13:13.471Z,5.60
2022-07-30T05:15:41.402Z,5.80
2022-07-30T05:18:09.635Z,5.93
2022-07-30T05:20:39.175Z,6.20
2022-07-30T05:23:08.645Z,6.27
2022-07-30T05:25:36.491Z,6.47
2022-07-30T05:28:04.442Z,4.90
2022-07-30T05:30:32.508Z,6.23
2022-07-30T05:33:01.401Z,5.77
2022-07-30T05:35:31.630Z,7.40
2022-07-30T05:38:01.771Z,6.83
2022-07-30T05:40:29.640Z,7.63
2022-07-30T05:42:57.485Z,7.87
2022-07-30T05:45:25.355Z,7.40
2022-07-30T05:47:53.162Z,6.47
2022-07-30T05:50:20.974Z,7.87
2022-07-30T05:52:48.864Z,7.37
2022-07-30T05:55:18.087Z,7.67
2022-07-30T05:57:45.938Z,7.67
2022-07-30T06:00:15.996Z,8.57
2022-07-30T06:02:43.833Z,7.77
2022-07-30T06:05:12.231Z,7.93
2022-07-30T06:07:40.064Z,9.40
2022-07-30T06:10:08.627Z,9.73
2022-07-30T06:12:37.787Z,8.20
2022-07-30T06:15:06.297Z,8.40
2022-07-30T06:17:41.327Z,9.50
2022-07-30T06:20:11.524Z,8.30
2022-07-30T06:22:39.389Z,9.27
2022-07-30T06:25:08.281Z,8.80
2022-07-30T06:27:39.860Z,10.13
2022-07-30T06:30:10.457Z,9.13
2022-07-30T06:32:38.550Z,11.57
2022-07-30T06:35:07.162Z,11.93
2022-07-30T06:37:58.822Z,10.27
2022-07-30T06:40:23.012Z,10.97
2022-07-30T06:42:52.204Z,13.97
2022-07-30T06:45:20.333Z,14.03
2022-07-30T06:47:48.207Z,14.93
2022-07-30T06:50:18.804Z,14.97
2022-07-30T06:52:47.146Z,16.73
2022-07-30T06:55:15.022Z,20.93
2022-07-30T06:57:42.880Z,21.47
2022-07-30T07:00:13.036Z,19.07
2022-07-30T07:02:42.543Z,24.90
2022-07-30T07:05:10.619Z,28.57
2022-07-30T07:07:42.964Z,29.10
2022-07-30T07:10:14.315Z,25.67
2022-07-30T07:12:52.616Z,26.30
2022-07-30T07:15:28.057Z,25.93
2022-07-30T07:18:06.589Z,26.40
2022-07-30T07:20:35.137Z,21.87
2022-07-30T07:23:09.390Z,23.53
2022-07-30T07:25:40.464Z,22.30
2022-07-30T07:28:10.877Z,22.67
2022-07-30T07:30:43.213Z,22.70
2022-07-30T07:33:12.073Z,22.33
2022-07-30T07:35:48.718Z,20.10
2022-07-30T07:38:18.166Z,21.53
2022-07-30T07:40:46.119Z,20.90
2022-07-30T07:43:14.550Z,17.03
2022-07-30T07:45:45.442Z,15.90
2022-07-30T07:48:13.542Z,15.83
2022-07-30T07:50:41.795Z,15.33
2022-07-30T07:53:09.580Z,15.50
2022-07-30T07:55:37.411Z,17.63
2022-07-30T07:58:05.230Z,17.10
2022-07-30T08:00:33.077Z,15.03
2022-07-30T08:03:02.266Z,16.93
2022-07-30T08:05:59.020Z,14.67
2022-07-30T08:08:18.248Z,13.93
2022-07-30T08:10:46.174Z,13.20
2022-07-30T08:13:49.076Z,11.33
2022-07-30T08:16:03.454Z,11.63
2022-07-30T08:18:32.593Z,12.07
2022-07-30T08:21:00.372Z,13.47
2022-07-30T08:23:28.256Z,10.43
2022-07-30T08:25:58.039Z,11.90
2022-07-30T08:28:35.871Z,11.93
2022-07-30T08:31:05.004Z,11.67
2022-07-30T08:33:34.207Z,8.70
2022-07-30T08:36:04.295Z,10.13
2022-07-30T08:38:37.164Z,10.83
2022-07-30T08:41:05.173Z,13.87
2022-07-30T08:43:34.042Z,11.10
2022-07-30T08:46:03.508Z,9.60
2022-07-30T08:48:32.196Z,11.33
2022-07-30T08:51:01.952Z,11.50
2022-07-30T08:53:30.472Z,11.00
2022-07-30T08:55:58.781Z,8.73
2022-07-30T08:58:30.437Z,8.80
2022-07-30T09:00:58.515Z,8.93
2022-07-30T09:03:26.330Z,9.47
2022-07-30T09:05:54.153Z,9.00
2022-07-30T09:08:24.017Z,10.10
2022-07-30T09:10:53.410Z,9.57
2022-07-30T09:13:26.260Z,8.23
2022-07-30T09:15:55.007Z,7.43
2022-07-30T09:18:31.368Z,6.57
2022-07-30T09:21:00.985Z,7.70
2022-07-30T09:23:30.215Z,6.20
2022-07-30T09:26:00.791Z,7.23
2022-07-30T09:28:31.375Z,6.33
2022-07-30T09:30:59.423Z,6.27
2022-07-30T09:33:36.949Z,5.63
2022-07-30T09:36:06.939Z,4.70
2022-07-30T09:38:49.833Z,5.97
2022-07-30T09:41:40.229Z,6.07
2022-07-30T09:44:08.463Z,5.77
2022-07-30T09:46:49.707Z,5.60
2022-07-30T09:49:18.859Z,6.00
2022-07-30T09:51:54.164Z,6.03
2022-07-30T09:54:51.643Z,5.90
2022-07-30T09:57:26.555Z,4.13
2022-07-30T09:59:57.269Z,4.57
2022-07-30T10:02:32.797Z,3.90
2022-07-30T10:05:14.080Z,4.10
2022-07-30T10:07:49.165Z,3.90
2022-07-30T10:10:25.514Z,4.03
2022-07-30T10:12:58.028Z,5.03
2022-07-30T10:15:29.463Z,4.30
2022-07-30T10:17:57.937Z,4.07
2022-07-30T10:20:26.764Z,3.77
2022-07-30T10:22:56.074Z,3.87
2022-07-30T10:25:27.640Z,3.30
2022-07-30T10:27:57.082Z,4.50
2022-07-30T10:30:27.778Z,3.27
2022-07-30T10:32:59.964Z,3.67
2022-07-30T10:35:34.535Z,3.70
2022-07-30T10:38:13.721Z,3.50
2022-07-30T10:40:49.078Z,3.40
2022-07-30T10:43:53.134Z,3.30
2022-07-30T10:46:34.872Z,3.50
2022-07-30T10:49:12.674Z,3.50
2022-07-30T10:51:49.209Z,3.53
2022-07-30T10:54:39.670Z,3.77
2022-07-30T10:57:14.662Z,3.60
2022-07-30T11:00:15.201Z,3.40
2022-07-30T11:03:18.419Z,3.40
2022-07-30T11:05:48.616Z,2.87
2022-07-30T11:08:48.462Z,2.73
2022-07-30T11:12:01.625Z,3.10
2022-07-30T11:15:07.450Z,3.23
2022-07-30T11:18:00.831Z,3.10
2022-07-30T11:20:31.012Z,2.53
2022-07-30T11:23:14.051Z,2.57
2022-07-30T11:25:50.639Z,2.33
2022-07-30T11:28:41.845Z,2.50
2022-07-30T11:31:55.721Z,2.27
2022-07-30T11:34:30.820Z,2.20
2022-07-30T11:37:19.093Z,2.60
2022-07-30T11:40:12.846Z,2.20
2022-07-30T11:42:42.668Z,2.90
2022-07-30T11:45:31.623Z,2.90
2022-07-30T11:48:03.179Z,2.67
2022-07-30T11:50:35.463Z,1.70
2022-07-30T11:53:14.670Z,1.90
2022-07-30T11:55:44.195Z,2.00
2022-07-30T11:58:24.573Z,2.60
2022-07-30T12:00:53.067Z,2.23
2022-07-30T12:03:22.747Z,2.00
2022-07-30T12:05:51.071Z,1.90
2022-07-30T12:08:35.216Z,2.10
2022-07-30T12:11:04.542Z,2.00
2022-07-30T12:13:43.611Z,1.70
2022-07-30T12:16:14.891Z,1.97
2022-07-30T12:18:43.292Z,2.03
2022-07-30T12:21:13.483Z,1.87
2022-07-30T12:23:43.947Z,1.90
2022-07-30T12:26:21.883Z,2.03
2022-07-30T12:28:50.063Z,2.07
2022-07-30T12:31:18.302Z,1.73
2022-07-30T12:33:46.519Z,1.93
2022-07-30T12:36:26.077Z,1.90
2022-07-30T12:38:56.595Z,1.97
2022-07-30T12:41:25.005Z,2.40
2022-07-30T12:43:55.101Z,1.63
2022-07-30T12:46:24.433Z,2.00
2022-07-30T12:49:19.095Z,1.87
2022-07-30T12:51:52.658Z,1.73
2022-07-30T12:54:30.141Z,2.17
2022-07-30T12:57:00.494Z,1.57
2022-07-30T12:59:29.857Z,1.77
2022-07-30T13:02:00.404Z,1.47
2022-07-30T13:04:29.163Z,1.20
2022-07-30T13:07:11.433Z,1.70
2022-07-30T13:09:40.942Z,1.40
2022-07-30T13:12:12.624Z,1.60
2022-07-30T13:14:41.465Z,1.80
2022-07-30T13:17:09.693Z,1.60
2022-07-30T13:19:38.402Z,1.77
2022-07-30T13:22:06.183Z,1.20
2022-07-30T13:24:34.466Z,2.17
2022-07-30T13:27:03.797Z,1.60
2022-07-30T13:29:31.930Z,1.93
2022-07-30T13:31:59.711Z,1.60
2022-07-30T13:34:33.035Z,1.63
2022-07-30T13:37:01.066Z,1.37
2022-07-30T13:39:29.039Z,1.57
2022-07-30T13:41:56.933Z,1.33
2022-07-30T13:44:26.092Z,1.60
2022-07-30T13:46:54.692Z,1.57
2022-07-30T13:49:24.605Z,1.57
2022-07-30T13:51:55.089Z,1.60
2022-07-30T13:54:23.339Z,1.80
2022-07-30T13:56:51.126Z,1.70
2022-07-30T13:59:18.894Z,1.10
2022-07-30T14:01:48.126Z,1.50
2022-07-30T14:04:15.986Z,1.07
2022-07-30T14:06:44.071Z,1.33
2022-07-30T14:09:12.224Z,1.50
2022-07-30T14:11:40.035Z,1.23
2022-07-30T14:14:07.875Z,1.70
2022-07-30T14:16:45.171Z,1.30
2022-07-30T14:19:23.741Z,1.00
2022-07-30T14:21:53.472Z,1.37
2022-07-30T14:24:21.984Z,1.47
2022-07-30T14:26:55.781Z,1.30
2022-07-30T14:29:26.008Z,2.53
2022-07-30T14:31:53.875Z,2.33
2022-07-30T14:34:23.046Z,1.27
2022-07-30T14:36:51.148Z,1.10
2022-07-30T14:39:19.012Z,0.90
2022-07-30T14:41:46.876Z,1.50
2022-07-30T14:44:16.703Z,1.10
2022-07-30T14:46:51.496Z,1.20
2022-07-30T14:49:24.272Z,1.20
2022-07-30T14:51:52.300Z,1.50
2022-07-30T14:54:20.452Z,1.40
2022-07-30T14:56:48.313Z,2.87
2022-07-30T14:59:16.767Z,3.47
2022-07-30T15:01:44.655Z,1.50
2022-07-30T15:04:12.583Z,3.37
2022-07-30T15:06:42.457Z,1.50
2022-07-30T15:09:10.699Z,1.97
2022-07-30T15:12:04.273Z,1.20
2022-07-30T15:14:28.327Z,0.73
2022-07-30T15:17:00.624Z,0.87
2022-07-30T15:19:31.270Z,1.20
2022-07-30T15:22:02.081Z,2.40
2022-07-30T15:24:30.379Z,2.93
2022-07-30T15:26:58.219Z,1.50
2022-07-30T15:29:29.157Z,1.27
2022-07-30T15:31:56.958Z,1.10
2022-07-30T15:34:24.765Z,1.17
2022-07-30T15:36:52.607Z,1.83
2022-07-30T15:39:21.802Z,1.43
2022-07-30T15:41:52.420Z,2.03
2022-07-30T15:44:21.409Z,2.00
2022-07-30T15:46:49.211Z,1.30
2022-07-30T15:49:17.092Z,1.70
2022-07-30T15:51:48.581Z,5.13
2022-07-30T15:54:22.138Z,2.77
2022-07-30T15:56:53.714Z,1.40
2022-07-30T15:59:22.161Z,1.57
2022-07-30T16:01:50.377Z,1.03
2022-07-30T16:04:19.551Z,1.20
2022-07-30T16:06:48.025Z,0.90
2022-07-30T16:09:15.969Z,1.10
2022-07-30T16:11:43.789Z,0.90
2022-07-30T16:14:13.076Z,1.00
2022-07-30T16:16:41.077Z,1.20
2022-07-30T16:19:09.381Z,1.27
2022-07-30T16:21:37.267Z,1.20
2022-07-30T16:24:05.339Z,1.20
2022-07-30T16:26:33.246Z,0.90
2022-07-30T16:29:01.068Z,1.00
2022-07-30T16:31:30.290Z,1.17
2022-07-30T16:33:58.143Z,1.30
2022-07-30T16:36:25.959Z,0.93
2022-07-30T16:38:53.747Z,1.00
2022-07-30T16:41:21.547Z,1.10
2022-07-30T16:43:49.563Z,0.90
2022-07-30T16:46:19.052Z,1.03
2022-07-30T16:48:50.468Z,1.47
2022-07-30T16:51:18.670Z,1.10
2022-07-30T16:53:48.487Z,1.00
2022-07-30T16:56:16.624Z,1.20
2022-07-30T16:58:44.522Z,1.00
2022-07-30T17:01:12.384Z,1.00
2022-07-30T17:03:40.346Z,1.10
2022-07-30T17:06:09.841Z,1.27
2022-07-30T17:08:37.783Z,1.50
2022-07-30T17:11:09.777Z,3.03
2022-07-30T17:13:40.422Z,3.00
2022-07-30T17:16:08.891Z,3.57
2022-07-30T17:18:36.938Z,2.60
2022-07-30T17:21:04.950Z,1.93
2022-07-30T17:23:36.072Z,2.30
2022-07-30T17:26:04.116Z,2.73
2022-07-30T17:28:32.190Z,4.03
2022-07-30T17:31:00.065Z,2.20
2022-07-30T17:33:27.831Z,2.23
2022-07-30T17:35:56.387Z,2.07
2022-07-30T17:38:24.293Z,2.10
2022-07-30T17:40:53.431Z,1.60
2022-07-30T17:43:21.272Z,1.73
2022-07-30T17:45:49.519Z,1.70
2022-07-30T17:48:18.035Z,1.70
2022-07-30T17:50:45.849Z,1.37
2022-07-30T17:53:14.079Z,1.57
2022-07-30T17:55:41.995Z,1.37
2022-07-30T17:58:27.187Z,2.30
2022-07-30T18:00:55.708Z,1.73
2022-07-30T18:03:23.580Z,1.40
2022-07-30T18:05:51.636Z,2.03
2022-07-30T18:08:19.612Z,1.33
2022-07-30T18:10:47.535Z,1.87
2022-07-30T18:13:25.636Z,1.77
2022-07-30T18:15:56.482Z,2.13
2022-07-30T18:18:24.405Z,2.30
2022-07-30T18:25:18.776Z,2.50
2022-07-30T18:32:53.420Z,2.27
2022-07-30T18:39:09.080Z,1.90
2022-07-30T18:41:36.968Z,1.80
2022-07-30T18:44:05.752Z,1.43
2022-07-30T18:46:33.630Z,1.47
2022-07-30T18:49:20.952Z,2.20
2022-07-30T18:51:49.360Z,1.60
2022-07-30T18:54:19.218Z,1.40
2022-07-30T18:56:47.077Z,1.57
2022-07-30T19:03:05.220Z,1.10
2022-07-30T19:05:33.104Z,1.40
2022-07-30T19:08:00.931Z,1.23
2022-07-30T19:10:30.068Z,1.30
2022-07-30T19:12:58.152Z,1.30
2022-07-30T19:15:26.741Z,1.20
2022-07-30T19:17:54.708Z,1.20
2022-07-30T19:20:23.548Z,1.07
2022-07-30T19:22:53.195Z,1.10
2022-07-30T19:25:21.030Z,7.23
2022-07-30T19:27:50.196Z,4.50
2022-07-30T19:30:20.545Z,3.37
2022-07-30T19:32:48.581Z,2.83
2022-07-30T19:35:16.455Z,1.30
2022-07-30T19:37:44.415Z,2.43
2022-07-30T19:40:13.430Z,4.10
2022-07-30T19:42:41.813Z,2.10
2022-07-30T19:45:13.024Z,2.73
2022-07-30T19:47:42.640Z,1.97
2022-07-30T19:50:11.590Z,1.40
2022-07-30T19:52:39.623Z,1.40
2022-07-30T19:55:16.900Z,1.53
2022-07-30T19:57:56.726Z,1.30
2022-07-30T20:00:26.870Z,1.53
2022-07-30T20:02:54.753Z,1.37
2022-07-30T20:05:24.709Z,1.40
2022-07-30T20:07:52.902Z,1.40
2022-07-30T20:10:20.779Z,1.50
2022-07-30T20:12:50.812Z,1.47
2022-07-30T20:15:18.688Z,1.83
2022-07-30T20:17:47.877Z,1.80
2022-07-30T20:20:16.082Z,1.70
2022-07-30T20:22:43.943Z,1.60
2022-07-30T20:25:11.890Z,2.00
2022-07-30T20:27:48.481Z,1.70
2022-07-30T20:30:17.016Z,1.87
2022-07-30T20:32:55.976Z,1.60
2022-07-30T20:35:23.912Z,1.60
2022-07-30T20:37:56.591Z,1.40
2022-07-30T20:40:27.580Z,1.73
2022-07-30T20:42:56.913Z,1.60
2022-07-30T20:45:40.506Z,2.20
2022-07-30T20:48:17.441Z,1.93
2022-07-30T20:50:53.489Z,1.60
2022-07-30T20:53:23.343Z,1.70
2022-07-30T20:55:51.321Z,1.60
2022-07-30T20:58:20.613Z,4.37
2022-07-30T21:00:51.134Z,2.73
2022-07-30T21:03:21.360Z,3.13
2022-07-30T21:05:52.598Z,7.63
2022-07-30T21:08:21.205Z,2.40
2022-07-30T21:10:53.586Z,6.00
2022-07-30T21:13:26.081Z,2.63
2022-07-30T21:16:01.882Z,3.60
2022-07-30T21:18:31.207Z,3.97
2022-07-30T21:21:00.511Z,7.60
2022-07-30T21:23:28.956Z,12.83
2022-07-30T21:26:00.428Z,10.00
2022-07-30T21:28:35.645Z,9.73
2022-07-30T21:31:04.064Z,11.83
2022-07-30T21:33:35.722Z,11.60
2022-07-30T21:36:03.668Z,7.73
2022-07-30T21:38:34.339Z,4.20
2022-07-30T21:41:02.416Z,3.47
2022-07-30T21:43:33.646Z,3.50
2022-07-30T21:46:03.764Z,3.87
2022-07-30T21:48:31.795Z,2.40
2022-07-30T21:50:59.647Z,3.37
2022-07-30T21:53:44.647Z,2.53
2022-07-30T21:56:13.282Z,3.33
2022-07-30T21:58:42.548Z,2.80
2022-07-30T22:01:17.957Z,3.07
2022-07-30T22:04:03.952Z,3.17
2022-07-30T22:06:36.436Z,2.80
2022-07-30T22:09:20.501Z,2.70
2022-07-30T22:11:55.961Z,2.23
2022-07-30T22:14:25.572Z,2.10
2022-07-30T22:16:53.721Z,2.13
2022-07-30T22:19:22.522Z,2.30
2022-07-30T22:21:50.927Z,2.30
2022-07-30T22:24:28.992Z,2.40
2022-07-30T22:26:59.883Z,2.57
2022-07-30T22:29:34.142Z,2.50
2022-07-30T22:32:03.814Z,6.27
2022-07-30T22:34:32.123Z,7.60
2022-07-30T22:36:59.918Z,5.97
2022-07-30T22:39:32.079Z,3.23
2022-07-30T22:42:15.946Z,2.40
2022-07-30T22:44:45.983Z,2.20
2022-07-30T22:47:21.094Z,1.77
2022-07-30T22:49:55.247Z,1.93
2022-07-30T22:52:27.403Z,2.23
2022-07-30T22:54:59.667Z,1.93
2022-07-30T22:57:38.082Z,2.00
2022-07-30T23:00:12.073Z,2.13
2022-07-30T23:02:40.232Z,2.13
2022-07-30T23:05:08.894Z,1.97
2022-07-30T23:07:39.637Z,1.60
2022-07-30T23:12:31.000Z,1.90
2022-07-30T23:12:58.342Z,1.73
2022-07-30T23:15:27.667Z,1.80
2022-07-30T23:17:55.494Z,1.77
2022-07-30T23:20:23.376Z,1.83
2022-07-30T23:22:51.697Z,2.33
2022-07-30T23:25:19.887Z,2.23
2022-07-30T23:27:47.669Z,2.47
2022-07-30T23:30:15.979Z,1.80
2022-07-30T23:32:45.126Z,1.90
2022-07-30T23:35:13.598Z,2.33
2022-07-30T23:37:48.200Z,2.10
2022-07-30T23:40:17.596Z,2.40
2022-07-30T23:42:45.416Z,2.13
2022-07-30T23:45:13.169Z,1.70
2022-07-30T23:48:01.900Z,1.80
2022-07-30T23:50:30.479Z,1.60
2022-07-30T23:52:58.347Z,2.20
2022-07-30T23:55:26.926Z,2.47
2022-07-30T23:57:54.787Z,2.03
